| time (UTC) | temp F | wind direction | speed MPH | gust MPH | rain 1hr in | rain 24hr in | rain mn in | humidity % | barometer mb |
| 20260510230057 | 76 | 107 | 15.0 | 0.0 | 0.00 | 0.00 | 0.00 | 29 | 1008.6 |
| 20260510224557 | 77 | 103 | 13.0 | 0.0 | 0.00 | 0.00 | 0.00 | 29 | 1008.2 |
| 20260510223053 | 77 | 104 | 14.0 | 0.0 | 0.00 | 0.00 | 0.00 | 29 | 1008.3 |
| 20260510221552 | 78 | 96 | 15.0 | 0.0 | 0.00 | 0.00 | 0.00 | 28 | 1008.1 |
| 20260510220052 | 79 | 116 | 13.0 | 0.0 | 0.00 | 0.00 | 0.00 | 28 | 1008.6 |
| 20260510214552 | 76 | 86 | 15.0 | 0.0 | 0.00 | 0.00 | 0.00 | 29 | 1008.6 |
| 20260510213053 | 79 | 107 | 15.0 | 0.0 | 0.00 | 0.00 | 0.00 | 28 | 1008.3 |
| 20260510211548 | 77 | 105 | 15.0 | 0.0 | 0.00 | 0.00 | 0.00 | 28 | 1008.1 |
| 20260510210046 | 76 | 103 | 14.0 | 0.0 | 0.00 | 0.00 | 0.00 | 31 | 1007.7 |
| 20260510204547 | 74 | 101 | 13.0 | 0.0 | 0.00 | 0.00 | 0.00 | 31 | 1007.9 |
| 20260510203045 | 74 | 57 | 11.0 | 0.0 | 0.00 | 0.00 | 0.00 | 31 | 1007.9 |
| 20260510201545 | 74 | 109 | 11.0 | 0.0 | 0.00 | 0.00 | 0.00 | 30 | 1007.7 |
| 20260510200043 | 76 | 88 | 12.0 | 0.0 | 0.00 | 0.00 | 0.00 | 28 | 1007.6 |
| 20260510194544 | 84 | 96 | 11.0 | 0.0 | 0.00 | 0.00 | 0.00 | 23 | 1007.2 |
| 20260510193048 | 76 | 101 | 13.0 | 0.0 | 0.00 | 0.00 | 0.00 | 29 | 1007.2 |
| 20260510191543 | 77 | 117 | 12.0 | 0.0 | 0.00 | 0.00 | 0.00 | 26 | 1007.2 |
| 20260510190048 | 82 | 132 | 10.0 | 0.0 | 0.00 | 0.00 | 0.00 | 23 | 1007.2 |
| 20260510184601 | 86 | 111 | 13.0 | 0.0 | 0.00 | 0.00 | 0.00 | 21 | 1007.2 |
| 20260510183040 | 85 | 80 | 12.0 | 0.0 | 0.00 | 0.00 | 0.00 | 22 | 1007.4 |
| 20260510181552 | 85 | 117 | 12.0 | 0.0 | 0.00 | 0.00 | 0.00 | 23 | 1007.3 |
| 20260510180049 | 84 | 105 | 14.0 | 0.0 | 0.00 | 0.00 | 0.00 | 23 | 1007.2 |
| 20260510174534 | 85 | 126 | 13.0 | 0.0 | 0.00 | 0.00 | 0.00 | 22 | 1007.0 |
| 20260510173032 | 84 | 115 | 13.0 | 0.0 | 0.00 | 0.00 | 0.00 | 22 | 1007.0 |
| 20260510171531 | 84 | 106 | 11.0 | 0.0 | 0.00 | 0.00 | 0.00 | 24 | 1007.0 |
| 20260510170031 | 83 | 106 | 10.0 | 0.0 | 0.00 | 0.00 | 0.00 | 24 | 1006.9 |
| 20260510164531 | 81 | 97 | 11.0 | 0.0 | 0.00 | 0.00 | 0.00 | 25 | 1006.6 |
| 20260510163028 | 80 | 107 | 10.0 | 0.0 | 0.00 | 0.00 | 0.00 | 26 | 1006.3 |
| 20260510161527 | 86 | 103 | 5.0 | 0.0 | 0.00 | 0.00 | 0.00 | 19 | 1006.3 |
| 20260510160027 | 88 | 101 | 3.0 | 0.0 | 0.00 | 0.00 | 0.00 | 17 | 1006.3 |
| 20260510154529 | 82 | 122 | 7.0 | 0.0 | 0.00 | 0.00 | 0.00 | 20 | 1006.3 |
| 20260510153040 | 82 | 89 | 6.0 | 0.0 | 0.00 | 0.00 | 0.00 | 21 | 1006.1 |
| 20260510151521 | 80 | 123 | 7.0 | 0.0 | 0.00 | 0.00 | 0.00 | 22 | 1006.1 |
| 20260510150019 | 78 | 139 | 7.0 | 0.0 | 0.00 | 0.00 | 0.00 | 23 | 1006.2 |
| 20260510144538 | 77 | 94 | 7.0 | 0.0 | 0.00 | 0.00 | 0.00 | 24 | 1006.2 |
| 20260510143012 | 73 | 117 | 8.0 | 0.0 | 0.00 | 0.00 | 0.00 | 28 | 1006.1 |
| 20260510141513 | 69 | 108 | 9.0 | 0.0 | 0.00 | 0.00 | 0.00 | 30 | 1006.0 |
| 20260510140011 | 66 | 115 | 9.0 | 0.0 | 0.00 | 0.00 | 0.00 | 34 | 1006.0 |
| 20260510134508 | 62 | 112 | 12.0 | 0.0 | 0.00 | 0.00 | 0.00 | 38 | 1005.7 |
| 20260510133007 | 62 | 98 | 12.0 | 0.0 | 0.00 | 0.00 | 0.00 | 37 | 1005.7 |
| 20260510131509 | 60 | 118 | 11.0 | 0.0 | 0.00 | 0.00 | 0.00 | 39 | 1005.4 |
| 20260510130004 | 0 | 0.0 | 0.0 | 0.00 | 0.00 | 0.00 | 1005.7 | ||
| 20260510124601 | 0 | 0.0 | 0.0 | 0.00 | 0.00 | 0.00 | 1005.7 | ||
| 20260510123057 | 60 | 98 | 10.0 | 0.0 | 0.00 | 0.00 | 0.00 | 34 | 1006.1 |
| 20260510121557 | 61 | 35 | 6.0 | 0.0 | 0.00 | 0.00 | 0.00 | 34 | 1006.3 |
| 20260510120054 | 62 | 26 | 7.0 | 0.0 | 0.00 | 0.00 | 0.00 | 32 | 1006.3 |
| 20260510114553 | 61 | 360 | 5.0 | 0.0 | 0.00 | 0.00 | 0.00 | 29 | 1006.4 |
| 20260510113051 | 60 | 355 | 6.0 | 0.0 | 0.00 | 0.00 | 0.00 | 30 | 1006.3 |
| 20260510111551 | 58 | 339 | 5.0 | 0.0 | 0.00 | 0.00 | 0.00 | 33 | 1005.9 |
| 20260510110050 | 60 | 331 | 6.0 | 0.0 | 0.00 | 0.00 | 0.00 | 31 | 1005.6 |
| 20260510104555 | 60 | 342 | 5.0 | 0.0 | 0.00 | 0.00 | 0.00 | 31 | 1005.2 |
| 20260510103046 | 62 | 344 | 7.0 | 0.0 | 0.00 | 0.00 | 0.00 | 28 | 1005.1 |
| 20260510101550 | 62 | 340 | 11.0 | 0.0 | 0.00 | 0.00 | 0.00 | 28 | 1005.1 |
| 20260510100050 | 63 | 347 | 9.0 | 0.0 | 0.00 | 0.00 | 0.00 | 27 | 1004.9 |
| 20260510094536 | 55 | 333 | 4.0 | 0.0 | 0.00 | 0.00 | 0.00 | 34 | 1005.1 |
| 20260510093035 | 56 | 318 | 6.0 | 0.0 | 0.00 | 0.00 | 0.00 | 32 | 1005.1 |
| 20260510091536 | 54 | 323 | 5.0 | 0.0 | 0.00 | 0.00 | 0.00 | 35 | 1004.9 |
| 20260510090031 | 55 | 333 | 5.0 | 0.0 | 0.00 | 0.00 | 0.00 | 33 | 1004.6 |
| 20260510084543 | 52 | 308 | 5.0 | 0.0 | 0.00 | 0.00 | 0.00 | 35 | 1004.5 |
| 20260510083026 | 52 | 340 | 6.0 | 0.0 | 0.00 | 0.00 | 0.00 | 34 | 1004.3 |
| 20260510081533 | 50 | 355 | 5.0 | 0.0 | 0.00 | 0.00 | 0.00 | 35 | 1004.2 |
| 20260510080025 | 52 | 355 | 7.0 | 0.0 | 0.00 | 0.00 | 0.00 | 33 | 1004.4 |
| 20260510074521 | 49 | 344 | 5.0 | 0.0 | 0.00 | 0.00 | 0.00 | 38 | 1004.6 |
| 20260510073020 | 44 | 302 | 4.0 | 0.0 | 0.00 | 0.00 | 0.00 | 51 | 1004.7 |
| 20260510071514 | 46 | 282 | 1.0 | 0.0 | 0.00 | 0.00 | 0.00 | 44 | 1004.6 |
| 20260510070011 | 47 | 282 | 4.0 | 0.0 | 0.00 | 0.00 | 0.00 | 43 | 1004.4 |
| 20260510064508 | 49 | 306 | 5.0 | 0.0 | 0.00 | 0.00 | 0.00 | 40 | 1004.3 |
| 20260510063007 | 48 | 296 | 5.0 | 0.0 | 0.00 | 0.00 | 0.00 | 42 | 1004.0 |
| 20260510061505 | 50 | 303 | 5.0 | 0.0 | 0.00 | 0.00 | 0.00 | 39 | 1003.9 |
| 20260510060059 | 49 | 301 | 4.0 | 0.0 | 0.00 | 0.00 | 0.00 | 40 | 1004.0 |
| 20260510054559 | 48 | 293 | 3.0 | 0.0 | 0.00 | 0.00 | 0.00 | 40 | 1003.8 |
| 20260510053059 | 50 | 295 | 3.0 | 0.0 | 0.00 | 0.00 | 0.00 | 37 | 1003.7 |
| 20260510051555 | 54 | 267 | 5.0 | 0.0 | 0.00 | 0.00 | 0.00 | 31 | 1003.7 |
| 20260510050054 | 53 | 234 | 5.0 | 0.0 | 0.00 | 0.00 | 0.00 | 32 | 1003.7 |
| 20260510044555 | 49 | 181 | 3.0 | 0.0 | 0.00 | 0.00 | 0.00 | 38 | 1003.8 |
| 20260510043110 | 50 | 218 | 2.0 | 0.0 | 0.00 | 0.00 | 0.00 | 40 | 1003.7 |
| 20260510041552 | 50 | 218 | 2.0 | 0.0 | 0.00 | 0.00 | 0.00 | 40 | 1003.4 |
| 20260510034559 | 54 | 295 | 4.0 | 0.0 | 0.00 | 0.00 | 0.00 | 32 | 1003.0 |
| 20260510033049 | 53 | 296 | 4.0 | 0.0 | 0.00 | 0.00 | 0.00 | 33 | 1002.8 |
| 20260510031600 | 54 | 304 | 4.0 | 0.0 | 0.00 | 0.00 | 0.00 | 32 | 1002.7 |
| 20260510030048 | 54 | 295 | 3.0 | 0.0 | 0.00 | 0.00 | 0.00 | 33 | 1002.4 |
| 20260510024548 | 56 | 301 | 3.0 | 0.0 | 0.00 | 0.00 | 0.00 | 32 | 1001.9 |
| 20260510023048 | 61 | 333 | 2.0 | 0.0 | 0.00 | 0.00 | 0.00 | 26 | 1001.7 |
| 20260510021548 | 65 | 281 | 3.0 | 0.0 | 0.00 | 0.00 | 0.00 | 22 | 1001.6 |
| 20260510020047 | 68 | 342 | 4.0 | 0.0 | 0.00 | 0.00 | 0.00 | 18 | 1001.5 |
| 20260510014546 | 68 | 26 | 5.0 | 0.0 | 0.00 | 0.00 | 0.00 | 19 | 1001.4 |
| 20260510013054 | 74 | 275 | 5.0 | 0.0 | 0.00 | 0.00 | 0.00 | 15 | 1001.3 |
| 20260510011546 | 74 | 281 | 5.0 | 0.0 | 0.00 | 0.00 | 0.00 | 16 | 1001.5 |
| 20260510010044 | 76 | 319 | 12.0 | 0.0 | 0.00 | 0.00 | 0.00 | 14 | 1001.2 |
| 20260510004543 | 74 | 308 | 5.0 | 0.0 | 0.00 | 0.00 | 0.00 | 16 | 1001.1 |
| 20260510003048 | 78 | 275 | 10.0 | 0.0 | 0.00 | 0.00 | 0.00 | 14 | 1001.0 |
| 20260510001543 | 81 | 263 | 9.0 | 0.0 | 0.00 | 0.00 | 0.00 | 13 | 1000.8 |
| 20260510000041 | 80 | 269 | 12.0 | 0.0 | 0.00 | 0.00 | 0.00 | 13 | 1000.8 |
| 20260509234542 | 82 | 235 | 9.0 | 0.0 | 0.00 | 0.00 | 0.00 | 13 | 1000.7 |
| 20260509233041 | 85 | 269 | 11.0 | 0.0 | 0.00 | 0.00 | 0.00 | 12 | 1000.7 |
| 20260509231543 | 90 | 255 | 13.0 | 0.0 | 0.00 | 0.00 | 0.00 | 10 | 1000.6 |